sensor_id;sensor_type;location;lat;lon;timestamp;temperature;humidity
69628;DHT22;56850;51.984;5.088;2022-09-03T00:00:24;22.90;38.80
69628;DHT22;56850;51.984;5.088;2022-09-03T00:03:03;22.90;38.90
69628;DHT22;56850;51.984;5.088;2022-09-03T00:05:46;22.80;39.00
69628;DHT22;56850;51.984;5.088;2022-09-03T00:08:20;22.80;39.10
69628;DHT22;56850;51.984;5.088;2022-09-03T00:10:55;22.80;39.30
69628;DHT22;56850;51.984;5.088;2022-09-03T00:13:28;22.70;39.30
69628;DHT22;56850;51.984;5.088;2022-09-03T00:15:57;22.70;39.40
69628;DHT22;56850;51.984;5.088;2022-09-03T00:18:32;22.70;39.50
69628;DHT22;56850;51.984;5.088;2022-09-03T00:21:07;22.70;39.50
69628;DHT22;56850;51.984;5.088;2022-09-03T00:23:39;22.70;39.60
69628;DHT22;56850;51.984;5.088;2022-09-03T00:29:02;22.60;39.70
69628;DHT22;56850;51.984;5.088;2022-09-03T00:31:39;22.60;39.80
69628;DHT22;56850;51.984;5.088;2022-09-03T00:34:29;22.60;39.80
69628;DHT22;56850;51.984;5.088;2022-09-03T00:36:57;22.60;39.90
69628;DHT22;56850;51.984;5.088;2022-09-03T00:39:26;22.50;40.00
69628;DHT22;56850;51.984;5.088;2022-09-03T00:44:47;22.40;40.20
69628;DHT22;56850;51.984;5.088;2022-09-03T00:58:33;22.20;40.60
69628;DHT22;56850;51.984;5.088;2022-09-03T01:01:20;22.10;40.50
69628;DHT22;56850;51.984;5.088;2022-09-03T01:04:32;22.10;40.60
69628;DHT22;56850;51.984;5.088;2022-09-03T01:07:14;22.10;40.70
69628;DHT22;56850;51.984;5.088;2022-09-03T01:12:46;22.00;40.70
69628;DHT22;56850;51.984;5.088;2022-09-03T01:15:34;22.00;40.70
69628;DHT22;56850;51.984;5.088;2022-09-03T01:32:08;21.80;41.10
69628;DHT22;56850;51.984;5.088;2022-09-03T01:38:04;21.70;41.20
69628;DHT22;56850;51.984;5.088;2022-09-03T01:46:39;21.70;41.10
69628;DHT22;56850;51.984;5.088;2022-09-03T01:49:24;21.60;41.20
69628;DHT22;56850;51.984;5.088;2022-09-03T01:52:10;21.60;41.30
69628;DHT22;56850;51.984;5.088;2022-09-03T01:54:49;21.60;41.40
69628;DHT22;56850;51.984;5.088;2022-09-03T02:00:10;21.60;41.40
69628;DHT22;56850;51.984;5.088;2022-09-03T02:02:41;21.50;41.40
69628;DHT22;56850;51.984;5.088;2022-09-03T02:08:06;21.50;41.50
69628;DHT22;56850;51.984;5.088;2022-09-03T02:10:47;21.40;41.60
69628;DHT22;56850;51.984;5.088;2022-09-03T02:13:25;21.40;41.70
69628;DHT22;56850;51.984;5.088;2022-09-03T02:15:56;21.40;41.80
69628;DHT22;56850;51.984;5.088;2022-09-03T02:18:32;21.40;41.80
69628;DHT22;56850;51.984;5.088;2022-09-03T02:20:59;21.40;41.90
69628;DHT22;56850;51.984;5.088;2022-09-03T02:23:27;21.40;41.90
69628;DHT22;56850;51.984;5.088;2022-09-03T02:25:57;21.30;42.00
69628;DHT22;56850;51.984;5.088;2022-09-03T02:28:27;21.30;42.10
69628;DHT22;56850;51.984;5.088;2022-09-03T02:30:54;21.30;42.20
69628;DHT22;56850;51.984;5.088;2022-09-03T02:33:22;21.30;42.20
69628;DHT22;56850;51.984;5.088;2022-09-03T02:35:49;21.30;42.30
69628;DHT22;56850;51.984;5.088;2022-09-03T02:38:23;21.30;42.30
69628;DHT22;56850;51.984;5.088;2022-09-03T02:40:54;21.20;42.40
69628;DHT22;56850;51.984;5.088;2022-09-03T02:43:28;21.20;42.50
69628;DHT22;56850;51.984;5.088;2022-09-03T02:46:01;21.10;42.50
69628;DHT22;56850;51.984;5.088;2022-09-03T02:48:28;21.10;42.70
69628;DHT22;56850;51.984;5.088;2022-09-03T02:50:55;21.10;42.60
69628;DHT22;56850;51.984;5.088;2022-09-03T02:53:22;21.00;42.70
69628;DHT22;56850;51.984;5.088;2022-09-03T02:55:49;21.00;42.80
69628;DHT22;56850;51.984;5.088;2022-09-03T02:58:16;21.00;42.90
69628;DHT22;56850;51.984;5.088;2022-09-03T03:00:43;20.90;42.90
69628;DHT22;56850;51.984;5.088;2022-09-03T03:03:10;20.90;42.90
69628;DHT22;56850;51.984;5.088;2022-09-03T03:05:52;20.90;42.90
69628;DHT22;56850;51.984;5.088;2022-09-03T03:08:23;20.90;43.00
69628;DHT22;56850;51.984;5.088;2022-09-03T03:10:52;20.90;43.00
69628;DHT22;56850;51.984;5.088;2022-09-03T03:13:20;20.80;43.00
69628;DHT22;56850;51.984;5.088;2022-09-03T03:15:47;20.80;43.10
69628;DHT22;56850;51.984;5.088;2022-09-03T03:18:15;20.80;43.20
69628;DHT22;56850;51.984;5.088;2022-09-03T03:20:43;20.70;43.30
69628;DHT22;56850;51.984;5.088;2022-09-03T03:23:10;20.70;43.30
69628;DHT22;56850;51.984;5.088;2022-09-03T03:25:38;20.70;43.40
69628;DHT22;56850;51.984;5.088;2022-09-03T03:28:06;20.70;43.50
69628;DHT22;56850;51.984;5.088;2022-09-03T03:30:35;20.60;43.50
69628;DHT22;56850;51.984;5.088;2022-09-03T03:33:03;20.60;43.60
69628;DHT22;56850;51.984;5.088;2022-09-03T03:35:30;20.60;43.70
69628;DHT22;56850;51.984;5.088;2022-09-03T03:37:58;20.50;43.70
69628;DHT22;56850;51.984;5.088;2022-09-03T03:40:25;20.50;43.70
69628;DHT22;56850;51.984;5.088;2022-09-03T03:42:52;20.50;43.80
69628;DHT22;56850;51.984;5.088;2022-09-03T03:45:20;20.40;43.80
69628;DHT22;56850;51.984;5.088;2022-09-03T03:47:47;20.40;43.90
69628;DHT22;56850;51.984;5.088;2022-09-03T03:50:14;20.40;43.90
69628;DHT22;56850;51.984;5.088;2022-09-03T03:52:42;20.40;44.00
69628;DHT22;56850;51.984;5.088;2022-09-03T03:55:09;20.30;44.00
69628;DHT22;56850;51.984;5.088;2022-09-03T03:57:41;20.30;44.00
69628;DHT22;56850;51.984;5.088;2022-09-03T04:00:08;20.30;44.10
69628;DHT22;56850;51.984;5.088;2022-09-03T04:02:41;20.30;44.10
69628;DHT22;56850;51.984;5.088;2022-09-03T04:05:08;20.30;44.20
69628;DHT22;56850;51.984;5.088;2022-09-03T04:07:37;20.30;44.20
69628;DHT22;56850;51.984;5.088;2022-09-03T04:10:04;20.20;44.30
69628;DHT22;56850;51.984;5.088;2022-09-03T04:12:31;20.20;44.40
69628;DHT22;56850;51.984;5.088;2022-09-03T04:14:58;20.20;44.40
69628;DHT22;56850;51.984;5.088;2022-09-03T04:17:26;20.20;44.50
69628;DHT22;56850;51.984;5.088;2022-09-03T04:19:53;20.20;44.60
69628;DHT22;56850;51.984;5.088;2022-09-03T04:22:20;20.20;44.60
69628;DHT22;56850;51.984;5.088;2022-09-03T04:24:48;20.10;44.80
69628;DHT22;56850;51.984;5.088;2022-09-03T04:27:15;20.10;44.70
69628;DHT22;56850;51.984;5.088;2022-09-03T04:29:42;20.10;44.80
69628;DHT22;56850;51.984;5.088;2022-09-03T04:32:09;20.10;44.70
69628;DHT22;56850;51.984;5.088;2022-09-03T04:34:54;20.10;44.80
69628;DHT22;56850;51.984;5.088;2022-09-03T04:37:21;20.10;44.80
69628;DHT22;56850;51.984;5.088;2022-09-03T04:39:48;20.10;44.80
69628;DHT22;56850;51.984;5.088;2022-09-03T04:42:15;20.00;44.90
69628;DHT22;56850;51.984;5.088;2022-09-03T04:44:42;20.00;44.90
69628;DHT22;56850;51.984;5.088;2022-09-03T04:47:09;20.00;45.00
69628;DHT22;56850;51.984;5.088;2022-09-03T04:49:36;19.90;45.00
69628;DHT22;56850;51.984;5.088;2022-09-03T04:52:03;19.90;45.10
69628;DHT22;56850;51.984;5.088;2022-09-03T04:54:30;19.90;45.10
69628;DHT22;56850;51.984;5.088;2022-09-03T04:56:57;19.90;45.20
69628;DHT22;56850;51.984;5.088;2022-09-03T04:59:24;19.90;45.30
69628;DHT22;56850;51.984;5.088;2022-09-03T05:01:51;19.90;45.30
69628;DHT22;56850;51.984;5.088;2022-09-03T05:04:22;19.90;45.40
69628;DHT22;56850;51.984;5.088;2022-09-03T05:06:49;19.80;45.40
69628;DHT22;56850;51.984;5.088;2022-09-03T05:09:16;19.80;45.50
69628;DHT22;56850;51.984;5.088;2022-09-03T05:11:43;19.80;45.50
69628;DHT22;56850;51.984;5.088;2022-09-03T05:14:10;19.80;45.50
69628;DHT22;56850;51.984;5.088;2022-09-03T05:16:38;19.70;45.60
69628;DHT22;56850;51.984;5.088;2022-09-03T05:19:05;19.70;45.60
69628;DHT22;56850;51.984;5.088;2022-09-03T05:21:34;19.70;45.60
69628;DHT22;56850;51.984;5.088;2022-09-03T05:24:04;19.70;45.70
69628;DHT22;56850;51.984;5.088;2022-09-03T05:26:36;19.70;45.70
69628;DHT22;56850;51.984;5.088;2022-09-03T05:29:04;19.70;45.80
69628;DHT22;56850;51.984;5.088;2022-09-03T05:31:37;19.60;45.90
69628;DHT22;56850;51.984;5.088;2022-09-03T05:34:06;19.60;46.00
69628;DHT22;56850;51.984;5.088;2022-09-03T05:36:35;19.60;46.10
69628;DHT22;56850;51.984;5.088;2022-09-03T05:39:03;19.60;46.10
69628;DHT22;56850;51.984;5.088;2022-09-03T05:41:31;19.50;46.20
69628;DHT22;56850;51.984;5.088;2022-09-03T05:43:59;19.50;46.20
69628;DHT22;56850;51.984;5.088;2022-09-03T05:46:29;19.50;46.30
69628;DHT22;56850;51.984;5.088;2022-09-03T05:49:00;19.50;46.40
69628;DHT22;56850;51.984;5.088;2022-09-03T05:51:29;19.50;46.40
69628;DHT22;56850;51.984;5.088;2022-09-03T05:53:57;19.50;46.40
69628;DHT22;56850;51.984;5.088;2022-09-03T05:56:26;19.40;46.30
69628;DHT22;56850;51.984;5.088;2022-09-03T05:58:55;19.40;46.50
69628;DHT22;56850;51.984;5.088;2022-09-03T06:01:31;19.40;46.50
69628;DHT22;56850;51.984;5.088;2022-09-03T06:04:00;19.40;46.50
69628;DHT22;56850;51.984;5.088;2022-09-03T06:06:29;19.40;46.50
69628;DHT22;56850;51.984;5.088;2022-09-03T06:08:59;19.40;46.60
69628;DHT22;56850;51.984;5.088;2022-09-03T06:11:28;19.40;46.60
69628;DHT22;56850;51.984;5.088;2022-09-03T06:13:56;19.40;46.60
69628;DHT22;56850;51.984;5.088;2022-09-03T06:16:23;19.40;46.70
69628;DHT22;56850;51.984;5.088;2022-09-03T06:18:58;19.40;46.60
69628;DHT22;56850;51.984;5.088;2022-09-03T06:21:26;19.40;46.60
69628;DHT22;56850;51.984;5.088;2022-09-03T06:23:55;19.40;46.80
69628;DHT22;56850;51.984;5.088;2022-09-03T06:26:27;19.40;46.80
69628;DHT22;56850;51.984;5.088;2022-09-03T06:28:55;19.40;46.90
69628;DHT22;56850;51.984;5.088;2022-09-03T06:31:23;19.40;47.00
69628;DHT22;56850;51.984;5.088;2022-09-03T06:33:51;19.40;47.00
69628;DHT22;56850;51.984;5.088;2022-09-03T06:36:21;19.50;47.10
69628;DHT22;56850;51.984;5.088;2022-09-03T06:38:54;19.60;47.10
69628;DHT22;56850;51.984;5.088;2022-09-03T06:41:27;19.60;47.10
69628;DHT22;56850;51.984;5.088;2022-09-03T06:44:04;19.70;47.10
69628;DHT22;56850;51.984;5.088;2022-09-03T06:46:33;19.70;47.00
69628;DHT22;56850;51.984;5.088;2022-09-03T06:49:00;19.70;47.00
69628;DHT22;56850;51.984;5.088;2022-09-03T06:51:30;19.70;47.10
69628;DHT22;56850;51.984;5.088;2022-09-03T06:54:04;19.70;47.10
69628;DHT22;56850;51.984;5.088;2022-09-03T06:56:33;19.80;47.10
69628;DHT22;56850;51.984;5.088;2022-09-03T06:59:11;19.80;47.10
69628;DHT22;56850;51.984;5.088;2022-09-03T07:01:39;19.80;47.20
69628;DHT22;56850;51.984;5.088;2022-09-03T07:04:12;19.90;47.30
69628;DHT22;56850;51.984;5.088;2022-09-03T07:06:40;20.00;47.20
69628;DHT22;56850;51.984;5.088;2022-09-03T07:09:10;20.00;47.00
69628;DHT22;56850;51.984;5.088;2022-09-03T07:11:37;20.00;47.00
69628;DHT22;56850;51.984;5.088;2022-09-03T07:14:13;20.10;46.80
69628;DHT22;56850;51.984;5.088;2022-09-03T07:16:41;20.20;46.70
69628;DHT22;56850;51.984;5.088;2022-09-03T07:19:09;20.20;46.60
69628;DHT22;56850;51.984;5.088;2022-09-03T07:21:36;20.30;46.40
69628;DHT22;56850;51.984;5.088;2022-09-03T07:24:04;20.30;46.30
69628;DHT22;56850;51.984;5.088;2022-09-03T07:26:41;20.40;46.30
69628;DHT22;56850;51.984;5.088;2022-09-03T07:29:14;20.50;46.20
69628;DHT22;56850;51.984;5.088;2022-09-03T07:31:45;20.50;46.20
69628;DHT22;56850;51.984;5.088;2022-09-03T07:34:13;20.60;46.10
69628;DHT22;56850;51.984;5.088;2022-09-03T07:36:44;20.70;46.10
69628;DHT22;56850;51.984;5.088;2022-09-03T07:39:17;20.80;46.00
69628;DHT22;56850;51.984;5.088;2022-09-03T07:41:45;21.00;46.00
69628;DHT22;56850;51.984;5.088;2022-09-03T07:44:13;21.10;45.80
69628;DHT22;56850;51.984;5.088;2022-09-03T07:46:41;21.20;45.70
69628;DHT22;56850;51.984;5.088;2022-09-03T07:49:11;21.30;45.60
69628;DHT22;56850;51.984;5.088;2022-09-03T07:51:38;21.40;45.30
69628;DHT22;56850;51.984;5.088;2022-09-03T07:54:08;21.50;45.20
69628;DHT22;56850;51.984;5.088;2022-09-03T07:56:38;21.70;45.00
69628;DHT22;56850;51.984;5.088;2022-09-03T07:59:05;21.70;44.70
69628;DHT22;56850;51.984;5.088;2022-09-03T08:01:33;21.80;44.40
69628;DHT22;56850;51.984;5.088;2022-09-03T08:04:00;21.90;44.20
69628;DHT22;56850;51.984;5.088;2022-09-03T08:06:29;22.10;44.00
69628;DHT22;56850;51.984;5.088;2022-09-03T08:08:58;22.20;43.70
69628;DHT22;56850;51.984;5.088;2022-09-03T08:11:31;22.30;43.50
69628;DHT22;56850;51.984;5.088;2022-09-03T08:14:09;22.50;43.40
69628;DHT22;56850;51.984;5.088;2022-09-03T08:16:41;22.60;43.30
69628;DHT22;56850;51.984;5.088;2022-09-03T08:19:09;22.80;42.90
69628;DHT22;56850;51.984;5.088;2022-09-03T08:21:37;22.90;42.70
69628;DHT22;56850;51.984;5.088;2022-09-03T08:24:07;23.10;42.40
69628;DHT22;56850;51.984;5.088;2022-09-03T08:26:39;23.20;42.30
69628;DHT22;56850;51.984;5.088;2022-09-03T08:29:12;23.40;42.30
69628;DHT22;56850;51.984;5.088;2022-09-03T08:31:38;23.50;41.80
69628;DHT22;56850;51.984;5.088;2022-09-03T08:34:06;23.60;41.70
69628;DHT22;56850;51.984;5.088;2022-09-03T08:36:35;23.70;41.70
69628;DHT22;56850;51.984;5.088;2022-09-03T08:39:05;23.80;41.50
69628;DHT22;56850;51.984;5.088;2022-09-03T08:44:36;24.10;41.30
69628;DHT22;56850;51.984;5.088;2022-09-03T08:47:16;24.20;41.10
69628;DHT22;56850;51.984;5.088;2022-09-03T08:49:49;24.40;40.80
69628;DHT22;56850;51.984;5.088;2022-09-03T08:52:25;24.50;40.70
69628;DHT22;56850;51.984;5.088;2022-09-03T08:55:33;24.60;40.60
69628;DHT22;56850;51.984;5.088;2022-09-03T09:03:46;25.10;40.00
69628;DHT22;56850;51.984;5.088;2022-09-03T09:06:25;25.20;39.90
69628;DHT22;56850;51.984;5.088;2022-09-03T09:14:44;25.50;39.30
69628;DHT22;56850;51.984;5.088;2022-09-03T09:25:19;26.10;38.70
69628;DHT22;56850;51.984;5.088;2022-09-03T09:28:18;26.20;38.30
69628;DHT22;56850;51.984;5.088;2022-09-03T09:30:48;26.30;38.10
69628;DHT22;56850;51.984;5.088;2022-09-03T09:33:16;26.50;38.00
69628;DHT22;56850;51.984;5.088;2022-09-03T09:35:44;26.60;37.80
69628;DHT22;56850;51.984;5.088;2022-09-03T09:38:12;26.70;37.70
69628;DHT22;56850;51.984;5.088;2022-09-03T09:40:43;26.80;37.60
69628;DHT22;56850;51.984;5.088;2022-09-03T09:43:16;26.90;37.40
69628;DHT22;56850;51.984;5.088;2022-09-03T09:45:48;27.10;37.20
69628;DHT22;56850;51.984;5.088;2022-09-03T09:48:24;27.10;37.20
69628;DHT22;56850;51.984;5.088;2022-09-03T09:51:25;27.30;37.10
69628;DHT22;56850;51.984;5.088;2022-09-03T09:54:24;27.40;36.70
69628;DHT22;56850;51.984;5.088;2022-09-03T09:57:04;27.60;36.40
69628;DHT22;56850;51.984;5.088;2022-09-03T09:59:35;27.70;36.30
69628;DHT22;56850;51.984;5.088;2022-09-03T10:02:13;27.80;36.40
69628;DHT22;56850;51.984;5.088;2022-09-03T10:04:48;27.90;36.40
69628;DHT22;56850;51.984;5.088;2022-09-03T10:07:22;28.00;36.20
69628;DHT22;56850;51.984;5.088;2022-09-03T10:10:07;28.20;36.30
69628;DHT22;56850;51.984;5.088;2022-09-03T10:12:48;28.30;36.00
69628;DHT22;56850;51.984;5.088;2022-09-03T10:15:27;28.30;35.90
69628;DHT22;56850;51.984;5.088;2022-09-03T10:18:09;28.40;35.80
69628;DHT22;56850;51.984;5.088;2022-09-03T10:20:52;28.60;35.60
69628;DHT22;56850;51.984;5.088;2022-09-03T10:23:28;28.80;35.60
69628;DHT22;56850;51.984;5.088;2022-09-03T10:26:11;28.90;35.40
69628;DHT22;56850;51.984;5.088;2022-09-03T10:28:41;29.00;35.20
69628;DHT22;56850;51.984;5.088;2022-09-03T10:34:17;29.20;34.70
69628;DHT22;56850;51.984;5.088;2022-09-03T10:37:05;29.30;34.80
69628;DHT22;56850;51.984;5.088;2022-09-03T10:40:00;29.50;34.70
69628;DHT22;56850;51.984;5.088;2022-09-03T10:48:49;29.90;34.20
69628;DHT22;56850;51.984;5.088;2022-09-03T10:51:27;30.00;33.80
69628;DHT22;56850;51.984;5.088;2022-09-03T10:57:01;30.10;33.20
69628;DHT22;56850;51.984;5.088;2022-09-03T10:59:50;30.20;33.50
69628;DHT22;56850;51.984;5.088;2022-09-03T11:02:37;30.30;33.30
69628;DHT22;56850;51.984;5.088;2022-09-03T11:08:06;30.50;33.10
69628;DHT22;56850;51.984;5.088;2022-09-03T11:10:48;30.70;33.00
69628;DHT22;56850;51.984;5.088;2022-09-03T11:14:02;30.70;32.70
69628;DHT22;56850;51.984;5.088;2022-09-03T11:16:31;30.80;32.60
69628;DHT22;56850;51.984;5.088;2022-09-03T11:19:05;30.80;32.50
69628;DHT22;56850;51.984;5.088;2022-09-03T11:21:36;30.90;32.30
69628;DHT22;56850;51.984;5.088;2022-09-03T11:24:33;30.90;32.20
69628;DHT22;56850;51.984;5.088;2022-09-03T11:30:03;31.10;32.10
69628;DHT22;56850;51.984;5.088;2022-09-03T11:35:27;31.20;31.80
69628;DHT22;56850;51.984;5.088;2022-09-03T11:38:00;31.20;31.70
69628;DHT22;56850;51.984;5.088;2022-09-03T11:40:35;31.20;31.80
69628;DHT22;56850;51.984;5.088;2022-09-03T11:43:32;31.30;31.60
69628;DHT22;56850;51.984;5.088;2022-09-03T11:48:46;31.60;31.60
69628;DHT22;56850;51.984;5.088;2022-09-03T11:56:30;31.90;31.30
69628;DHT22;56850;51.984;5.088;2022-09-03T11:59:00;32.00;31.00
69628;DHT22;56850;51.984;5.088;2022-09-03T12:01:28;32.00;30.90
69628;DHT22;56850;51.984;5.088;2022-09-03T12:04:06;32.00;31.00
69628;DHT22;56850;51.984;5.088;2022-09-03T12:06:47;32.10;30.90
69628;DHT22;56850;51.984;5.088;2022-09-03T12:12:52;32.30;30.70
69628;DHT22;56850;51.984;5.088;2022-09-03T12:18:32;32.50;30.50
69628;DHT22;56850;51.984;5.088;2022-09-03T12:21:02;32.60;30.40
69628;DHT22;56850;51.984;5.088;2022-09-03T12:23:31;32.70;30.40
69628;DHT22;56850;51.984;5.088;2022-09-03T12:26:12;32.60;30.10
69628;DHT22;56850;51.984;5.088;2022-09-03T12:28:49;32.60;30.20
69628;DHT22;56850;51.984;5.088;2022-09-03T12:31:19;32.50;29.90
69628;DHT22;56850;51.984;5.088;2022-09-03T12:33:53;32.50;30.00
69628;DHT22;56850;51.984;5.088;2022-09-03T12:36:21;32.40;29.80
69628;DHT22;56850;51.984;5.088;2022-09-03T12:38:49;32.40;29.90
69628;DHT22;56850;51.984;5.088;2022-09-03T12:41:45;32.50;30.00
69628;DHT22;56850;51.984;5.088;2022-09-03T12:47:16;32.60;29.80
69628;DHT22;56850;51.984;5.088;2022-09-03T12:50:08;32.80;29.90
69628;DHT22;56850;51.984;5.088;2022-09-03T12:53:01;32.90;29.60
69628;DHT22;56850;51.984;5.088;2022-09-03T12:55:40;32.90;29.50
69628;DHT22;56850;51.984;5.088;2022-09-03T12:58:24;32.90;29.40
69628;DHT22;56850;51.984;5.088;2022-09-03T13:00:57;32.90;29.30
69628;DHT22;56850;51.984;5.088;2022-09-03T13:03:43;32.90;29.20
69628;DHT22;56850;51.984;5.088;2022-09-03T13:06:14;32.90;29.30
69628;DHT22;56850;51.984;5.088;2022-09-03T13:08:52;33.00;29.30
69628;DHT22;56850;51.984;5.088;2022-09-03T13:11:22;33.10;29.30
69628;DHT22;56850;51.984;5.088;2022-09-03T13:14:10;33.20;29.30
69628;DHT22;56850;51.984;5.088;2022-09-03T13:25:46;33.30;28.80
69628;DHT22;56850;51.984;5.088;2022-09-03T13:31:31;33.30;28.80
69628;DHT22;56850;51.984;5.088;2022-09-03T13:34:07;33.40;28.70
69628;DHT22;56850;51.984;5.088;2022-09-03T13:39:24;33.60;28.50
69628;DHT22;56850;51.984;5.088;2022-09-03T13:42:02;33.70;28.50
69628;DHT22;56850;51.984;5.088;2022-09-03T13:47:11;33.90;28.40
69628;DHT22;56850;51.984;5.088;2022-09-03T13:49:49;34.00;28.10
69628;DHT22;56850;51.984;5.088;2022-09-03T13:53:01;34.00;28.10
69628;DHT22;56850;51.984;5.088;2022-09-03T13:58:40;34.20;28.10
69628;DHT22;56850;51.984;5.088;2022-09-03T14:01:03;34.30;27.80
69628;DHT22;56850;51.984;5.088;2022-09-03T14:03:34;34.40;27.60
69628;DHT22;56850;51.984;5.088;2022-09-03T14:06:17;34.40;27.30
69628;DHT22;56850;51.984;5.088;2022-09-03T14:11:54;34.60;27.40
69628;DHT22;56850;51.984;5.088;2022-09-03T14:20:03;34.60;26.80
69628;DHT22;56850;51.984;5.088;2022-09-03T14:22:48;34.60;26.70
69628;DHT22;56850;51.984;5.088;2022-09-03T14:25:20;34.70;26.80
69628;DHT22;56850;51.984;5.088;2022-09-03T14:27:48;34.70;27.00
69628;DHT22;56850;51.984;5.088;2022-09-03T14:30:17;34.70;27.20
69628;DHT22;56850;51.984;5.088;2022-09-03T14:33:07;34.70;26.90
69628;DHT22;56850;51.984;5.088;2022-09-03T14:44:26;34.90;26.80
69628;DHT22;56850;51.984;5.088;2022-09-03T14:49:52;35.00;26.50
69628;DHT22;56850;51.984;5.088;2022-09-03T14:52:32;35.00;26.70
69628;DHT22;56850;51.984;5.088;2022-09-03T15:03:26;34.80;26.30
69628;DHT22;56850;51.984;5.088;2022-09-03T15:09:32;34.80;26.50
69628;DHT22;56850;51.984;5.088;2022-09-03T15:12:05;34.60;26.50
69628;DHT22;56850;51.984;5.088;2022-09-03T15:20:05;34.60;26.50
69628;DHT22;56850;51.984;5.088;2022-09-03T15:22:55;34.60;26.50
69628;DHT22;56850;51.984;5.088;2022-09-03T15:34:34;34.60;26.90
69628;DHT22;56850;51.984;5.088;2022-09-03T15:37:22;34.60;26.90
69628;DHT22;56850;51.984;5.088;2022-09-03T15:43:05;34.70;26.80
69628;DHT22;56850;51.984;5.088;2022-09-03T15:45:39;34.70;27.00
69628;DHT22;56850;51.984;5.088;2022-09-03T15:50:50;34.60;26.90
69628;DHT22;56850;51.984;5.088;2022-09-03T15:53:50;34.50;27.10
69628;DHT22;56850;51.984;5.088;2022-09-03T15:56:51;34.50;27.10
69628;DHT22;56850;51.984;5.088;2022-09-03T16:02:17;34.50;27.40
69628;DHT22;56850;51.984;5.088;2022-09-03T16:05:02;34.40;27.40
69628;DHT22;56850;51.984;5.088;2022-09-03T16:10:11;34.10;27.30
69628;DHT22;56850;51.984;5.088;2022-09-03T16:13:23;34.10;27.40
69628;DHT22;56850;51.984;5.088;2022-09-03T16:15:59;34.10;27.70
69628;DHT22;56850;51.984;5.088;2022-09-03T16:18:33;34.00;27.60
69628;DHT22;56850;51.984;5.088;2022-09-03T16:21:19;33.90;27.70
69628;DHT22;56850;51.984;5.088;2022-09-03T16:23:54;33.90;27.80
69628;DHT22;56850;51.984;5.088;2022-09-03T16:26:36;33.80;28.00
69628;DHT22;56850;51.984;5.088;2022-09-03T16:29:14;33.70;28.00
69628;DHT22;56850;51.984;5.088;2022-09-03T16:34:41;33.50;28.30
69628;DHT22;56850;51.984;5.088;2022-09-03T16:37:28;33.40;28.50
69628;DHT22;56850;51.984;5.088;2022-09-03T16:40:02;33.30;28.50
69628;DHT22;56850;51.984;5.088;2022-09-03T16:43:05;33.10;28.60
69628;DHT22;56850;51.984;5.088;2022-09-03T17:00:04;32.50;29.50
69628;DHT22;56850;51.984;5.088;2022-09-03T17:11:09;32.10;30.00
69628;DHT22;56850;51.984;5.088;2022-09-03T17:14:26;32.10;30.00
69628;DHT22;56850;51.984;5.088;2022-09-03T17:20:00;31.90;30.10
69628;DHT22;56850;51.984;5.088;2022-09-03T17:25:38;31.80;30.50
69628;DHT22;56850;51.984;5.088;2022-09-03T17:36:26;31.40;31.10
69628;DHT22;56850;51.984;5.088;2022-09-03T17:42:17;31.20;31.50
69628;DHT22;56850;51.984;5.088;2022-09-03T17:44:49;31.10;31.70
69628;DHT22;56850;51.984;5.088;2022-09-03T17:50:52;31.00;32.10
69628;DHT22;56850;51.984;5.088;2022-09-03T17:56:26;30.80;32.30
69628;DHT22;56850;51.984;5.088;2022-09-03T18:01:53;30.70;32.50
69628;DHT22;56850;51.984;5.088;2022-09-03T18:04:45;30.60;32.70
69628;DHT22;56850;51.984;5.088;2022-09-03T18:13:20;30.40;32.90
69628;DHT22;56850;51.984;5.088;2022-09-03T18:18:33;30.30;33.10
69628;DHT22;56850;51.984;5.088;2022-09-03T18:21:06;30.30;33.10
69628;DHT22;56850;51.984;5.088;2022-09-03T18:26:59;30.20;33.30
69628;DHT22;56850;51.984;5.088;2022-09-03T18:30:02;30.20;33.40
69628;DHT22;56850;51.984;5.088;2022-09-03T18:32:50;30.10;33.40
69628;DHT22;56850;51.984;5.088;2022-09-03T18:35:36;30.10;33.50
69628;DHT22;56850;51.984;5.088;2022-09-03T18:38:29;30.00;33.70
69628;DHT22;56850;51.984;5.088;2022-09-03T18:47:25;29.90;34.10
69628;DHT22;56850;51.984;5.088;2022-09-03T18:56:48;29.60;34.50
69628;DHT22;56850;51.984;5.088;2022-09-03T19:15:29;29.00;35.20
69628;DHT22;56850;51.984;5.088;2022-09-03T19:21:49;28.90;35.70
69628;DHT22;56850;51.984;5.088;2022-09-03T19:24:36;28.90;35.70
69628;DHT22;56850;51.984;5.088;2022-09-03T19:37:12;28.70;36.30
69628;DHT22;56850;51.984;5.088;2022-09-03T19:40:34;28.70;36.40
69628;DHT22;56850;51.984;5.088;2022-09-03T19:49:13;28.50;36.70
69628;DHT22;56850;51.984;5.088;2022-09-03T19:52:21;28.40;37.10
69628;DHT22;56850;51.984;5.088;2022-09-03T19:55:11;28.40;37.20
69628;DHT22;56850;51.984;5.088;2022-09-03T19:58:00;28.30;37.30
69628;DHT22;56850;51.984;5.088;2022-09-03T20:01:05;28.20;37.30
69628;DHT22;56850;51.984;5.088;2022-09-03T20:03:55;28.20;37.30
69628;DHT22;56850;51.984;5.088;2022-09-03T20:06:43;28.20;37.40
69628;DHT22;56850;51.984;5.088;2022-09-03T20:09:35;28.10;37.60
69628;DHT22;56850;51.984;5.088;2022-09-03T20:12:23;28.00;37.60
69628;DHT22;56850;51.984;5.088;2022-09-03T20:14:51;28.00;37.60
69628;DHT22;56850;51.984;5.088;2022-09-03T20:26:17;27.80;38.20
69628;DHT22;56850;51.984;5.088;2022-09-03T20:37:23;27.60;38.70
69628;DHT22;56850;51.984;5.088;2022-09-03T20:45:23;27.40;38.90
69628;DHT22;56850;51.984;5.088;2022-09-03T20:48:00;27.40;39.00
69628;DHT22;56850;51.984;5.088;2022-09-03T20:50:53;27.30;39.20
69628;DHT22;56850;51.984;5.088;2022-09-03T20:56:32;27.20;39.30
69628;DHT22;56850;51.984;5.088;2022-09-03T20:59:10;27.20;39.40
69628;DHT22;56850;51.984;5.088;2022-09-03T21:11:06;27.00;39.70
69628;DHT22;56850;51.984;5.088;2022-09-03T21:14:03;26.90;39.70
69628;DHT22;56850;51.984;5.088;2022-09-03T21:16:53;26.80;39.90
69628;DHT22;56850;51.984;5.088;2022-09-03T21:19:52;26.80;40.00
69628;DHT22;56850;51.984;5.088;2022-09-03T21:22:54;26.70;40.20
69628;DHT22;56850;51.984;5.088;2022-09-03T21:25:37;26.70;40.40
69628;DHT22;56850;51.984;5.088;2022-09-03T21:28:20;26.60;40.60
69628;DHT22;56850;51.984;5.088;2022-09-03T21:31:00;26.50;40.80
69628;DHT22;56850;51.984;5.088;2022-09-03T21:33:32;26.40;40.90
69628;DHT22;56850;51.984;5.088;2022-09-03T21:36:19;26.30;41.10
69628;DHT22;56850;51.984;5.088;2022-09-03T21:38:57;26.30;41.40
69628;DHT22;56850;51.984;5.088;2022-09-03T21:41:30;26.30;41.50
69628;DHT22;56850;51.984;5.088;2022-09-03T21:44:13;26.20;41.60
69628;DHT22;56850;51.984;5.088;2022-09-03T21:46:58;26.10;41.90
69628;DHT22;56850;51.984;5.088;2022-09-03T21:49:34;26.10;42.10
69628;DHT22;56850;51.984;5.088;2022-09-03T21:52:07;26.10;42.10
69628;DHT22;56850;51.984;5.088;2022-09-03T21:54:37;26.10;42.30
69628;DHT22;56850;51.984;5.088;2022-09-03T22:00:15;26.00;42.70